Weather at IIT Kanpur Airport

Public forecast

Using degrees Celsius for public forecast. Weather courtesy of forecast.io.

Closest aviation weather report (METAR) to IIT Kanpur Airport

Closest report is Chaudhary Charan Singh International Airport, 38.1 nm (70.5 km) ENE.

2024/03/01 01:00 (retrieved 22 minutes ago)

VILK 010100Z VRB02KT 2000 BR NSC 12/11 Q1015 NOSIG

Closest aviation forecast (TAF) to IIT Kanpur Airport

Forecast is more than 12 hours old.

Closest forecast is Gwalior Airport, 108.7 nm (201.3 km) W.

2024/02/29 12:00 (retrieved 13 hours ago)

TAF VIGR 290930Z 2912/2924 32005KT 6000 NSC BECMG 2921/2922 VRB02KT 5000 BR NSC BECMG 2923/2924 VRB02KT 3000 BR NSC